Relevés horaires Bierset (Belgique)


Relevés horaires à Bierset - Dimanche 24 Oct. 2021
Heure UTC1 Température [°C] Vent [km/h] Hum. [%] Pres.4 [hPa] Visi. [Km] Nébu. [octa] Préc.5 [mm] Cond.
2m. Res. Ros. Dir.2 Vit. Moy. Raf.3
23:00 8.0 6.4 4.7 S 9.3 9.3 14.8 80 1021.1(0.5/3h) 25 0/8 -- --
22:00 8.2 7 5.1 SSO 7.4 9.3 14.8 81 1021.3(0.5/3h) 25 0/8 -- --
21:00 8.5 7 5.4 S 9.3 11.1 16.7 81 1020.9(-0.2/3h) 25 0/8 -- --
20:00 9.1 7.4 5.6 S 11.1 11.1 16.7 79 1020.5(-0.5/3h) 25 0/8 -- --
19:00 9.6 8.3 5.5 S 9.3 9.3 14.8 76 1020.6(-0.3/3h) 25 0/8 -- --
18:00 10.3 9.5 4.8 S 7.4 9.3 22.2 69 1021(-0.3/3h) 25 1/8 0/12h
--
17:00 11.7 11.5 4.5 S 5.6 7.4 14.8 61 1020.8(-1.2/3h) 25 1/8 -- --
16:00 12.9 12.5 4.5 S 7.4 9.3 22.2 57 1020.7(-1.9/3h) 25 1/8 -- --
15:00 13.8 13.8 4.7 S 5.6 9.3 16.7 54 1021(-1.9/3h) 25 1/8 -- --
14:00 13.9 13.7 4.5 S 7.4 7.4 16.7 53 1021.9(-1.6/3h) 25 1/8 -- --
13:00 13.1 13.1 4.2 S 5.6 9.3 13.0 55 1022.6(-1.2/3h) 25 0/8 -- --
12:00 12.4 11.6 3.0 S 9.3 9.3 18.5 53 1023.1(-1.1/3h) 25 0/8 0/6h
--
11:00 11.1 10.8 4.1 SSE 5.6 7.4 13.0 62 1023.8(-0.9/3h) 25 0/8 -- --
10:00 9.3 8.8 3.5 SSE 5.6 7.4 13.0 67 1024.1(-0.6/3h) 25 0/8 -- --
09:00 7.6 6.8 3.7 SSE 5.6 9.3 18.5 76 1024.6(-0.6/3h) 25 0/8 -- --
08:00 6.1 5.1 2.8 SSE 5.6 7.4 18.5 79 1025.1(-0.7/3h) 25 0/8 -- --
07:00 5.6 3.5 1.9 SSE 9.3 9.3 18.5 77 1025(-1.2/3h) 25 0/8 -- --
06:00 5.3 4.2 2.3 SE 5.6 7.4 14.8 81 1025.4(-1.2/3h) 25 1/8 0/12h
--
05:00 5.4 4.3 2.4 SE 5.6 5.6 14.8 81 1025.9(-1.4/3h) 25 0/8 -- --
04:00 5.5 4.4 2.9 SE 5.6 5.6 9.3 83 1026.2(-1.6/3h) 25 0/8 -- --
03:00 5.6 5.6 3.5 ESE 3.7 5.6 13.0 86 1026.5(-1.6/3h) 25 0/8 -- --
02:00 5.9 4.9 3.9 SE 5.6 5.6 13.0 87 1027.3(-1.1/3h) 25 1/8 -- --
01:00 6.3 5.3 4.5 SE 5.6 5.6 13.0 88 1027.8(-0.7/3h) 25 1/8 -- --
00:00 6.5 6.5 4.9 SE 3.7 5.6 14.8 89 1028.1(-0.4/3h) 25 1/8 0/6h
0/24h
--

1 Coordinated Universal Time. Actuellement il est 23:00 locale et 21:00 UTC.

2 Le vent souffle depuis la direction indiquée vers la direction oposée.

3 Les rafales max. sont disponible 40 min après l'heure du relevé.

4 Pour les stations d'altitude (plus de 600m) le géopotentiel du niveau le plus proche de la pression obligatoire est indiqué.

5 Les stations disposant d'un diffuseur peuvent indiquer "trace". Cela signifie que des précipitations ont touchés le sol mais que la quantité est inférieure à 0.1 mm.

Récapitulatif de la journée
Température [°C] Vent [km/h] Ensoleillement4 [h] Precipitations totale5 [mm] Pression [Hpa]
Min1 Max.2 Moy.3 Max. Min Max.
5.2 14.4 8.1 22.2 0 h 0 min 0 1020.5 1028.1

1 Température minimale relevée entre 18:00 UTC la veille et 18:00 UTC le jour donné.

2 Température maximale relevée entre 06:00 UTC le jour donné et 06:00 UTC le lendemain.

3 Vent moyen de la journée basé sur les relevés horaires.

4 Ensoleillement en heures relevé entre 06:00 UTC la veille et 06:00 UTC le jour donné.

5 Précipitations totales tombées entre 06:00 UTC la jour donné et 06:00 UTC le lendemain.

Graphiques horaires